»·PEaware :: N350PM KPOC-P20

N350PM :: KPOC-P20

FLIGHT INFORMATION

Flight Status: Arrived
Operator: Privately registered:
United States
More flights under this callsign
Pilot: Rafael C. (38421)
Aircraft: PIPER PA-24 COMMANCHE
(PA24)
More flights by this aircraft type
Origin: KPOC Brackett
United States
Destination: P20 Avi Suquilla
United States
More flights between these airports :: More routes between these airports
Route: PRADO V16 PDZ V186 NIKKL V64 TRM V208 TNP V264 PKE
File this flight plan on PilotEdge
Remarks:
Altitude:
(Current/Filed)
9,000ft
Speed:
(Current/Filed)
150kts
Departed: 09-Aug-23 03:09 PM
Arrived: 09-Aug-23 04:45 PM
Distance/Time
Traveled:
174nm/1:36
Distance/Time
To Go:
Arrived

Flight Plot

Page will automatically refresh every two minutes.

Flight plan parsing failed; only flown route is shown


Map Options




Map Legend


Flown Route
Filed Route
Departure Airport
Arrival Airport
Navaid (VOR, NDB)
Fix

Horizontal Profiles

Position Reports

Time Latitude Longitude Heading Altitude Ground
Speed
09-Aug-23 14:40 34.088840 -117.776288 87 1003ft 0kts
09-Aug-23 14:41 34.088840 -117.776288 87 1003ft 0kts
09-Aug-23 14:42 34.088840 -117.776288 87 1003ft 0kts
09-Aug-23 14:43 34.088840 -117.776287 87 1003ft 0kts
09-Aug-23 14:44 34.088840 -117.776287 87 1003ft 0kts
09-Aug-23 14:45 34.088840 -117.776287 87 1003ft 0kts
09-Aug-23 14:46 34.088840 -117.776287 87 1003ft 0kts
09-Aug-23 14:47 34.088840 -117.776287 87 1003ft 0kts
09-Aug-23 14:48 34.088840 -117.776287 87 1003ft 0kts
09-Aug-23 14:49 34.088840 -117.776287 87 1003ft 0kts
09-Aug-23 14:50 34.088840 -117.776287 87 1003ft 0kts
09-Aug-23 14:51 34.088840 -117.776287 87 1003ft 0kts
09-Aug-23 14:52 34.088840 -117.776287 87 1003ft 0kts
09-Aug-23 14:53 34.088840 -117.776287 87 1003ft 0kts
09-Aug-23 14:54 34.088840 -117.776287 87 1003ft 0kts
09-Aug-23 14:55 34.088840 -117.776287 87 1003ft 0kts
09-Aug-23 14:56 34.088840 -117.776287 87 1003ft 0kts
09-Aug-23 14:57 34.088840 -117.776287 87 1003ft 0kts
09-Aug-23 14:58 34.088840 -117.776287 87 1003ft 0kts
09-Aug-23 14:59 34.088840 -117.776287 87 1003ft 0kts
09-Aug-23 15:00 34.088840 -117.776287 87 1003ft 0kts
09-Aug-23 15:01 34.088840 -117.776287 87 1003ft 0kts
09-Aug-23 15:02 34.088840 -117.776287 87 1003ft 0kts
09-Aug-23 15:03 34.090363 -117.776543 89 1006ft 9kts
09-Aug-23 15:04 34.090121 -117.774926 305 1010ft 0kts
09-Aug-23 15:05 34.090121 -117.774925 305 1010ft 0kts
09-Aug-23 15:06 34.090121 -117.774925 305 1010ft 0kts
09-Aug-23 15:08 34.090635 -117.774649 3 1012ft 4kts
09-Aug-23 15:09 34.091715 -117.787937 270 1201ft 94kts
09-Aug-23 15:10 34.079279 -117.801017 135 2296ft 110kts
09-Aug-23 15:11 34.055903 -117.783176 206 3383ft 103kts
09-Aug-23 15:12 34.029924 -117.781153 160 4352ft 111kts
09-Aug-23 15:13 34.001200 -117.781665 188 5110ft 105kts
09-Aug-23 15:14 33.972649 -117.786160 186 5598ft 104kts
09-Aug-23 15:15 33.943878 -117.788034 177 6009ft 104kts
09-Aug-23 15:16 33.914849 -117.785594 178 6391ft 104kts
09-Aug-23 15:17 33.886047 -117.783193 173 6738ft 102kts
09-Aug-23 15:18 33.884938 -117.754055 22 6903ft 125kts
09-Aug-23 15:19 33.912146 -117.771006 310 7243ft 113kts
09-Aug-23 15:20 33.940803 -117.786414 12 7383ft 130kts
09-Aug-23 15:21 33.942567 -117.755665 166 7716ft 109kts
09-Aug-23 15:22 33.914030 -117.747246 172 7963ft 105kts
09-Aug-23 15:23 33.885352 -117.741444 187 8124ft 105kts
09-Aug-23 15:24 33.880629 -117.766410 327 8237ft 117kts
09-Aug-23 15:25 33.913645 -117.773409 350 8472ft 121kts
09-Aug-23 15:26 33.925284 -117.744505 144 8753ft 113kts
09-Aug-23 15:27 33.897202 -117.739506 188 8923ft 101kts
09-Aug-23 15:28 33.873493 -117.758359 278 8892ft 139kts
09-Aug-23 15:28 33.902964 -117.774992 347 8925ft 159kts
09-Aug-23 15:30 33.926853 -117.732156 106 8928ft 160kts
09-Aug-23 15:31 33.919329 -117.679972 94 8928ft 159kts
09-Aug-23 15:32 33.920940 -117.626311 92 8918ft 157kts
09-Aug-23 15:32 33.919849 -117.582262 97 8918ft 157kts
09-Aug-23 15:33 33.918124 -117.529583 107 8922ft 157kts
09-Aug-23 15:35 33.883278 -117.495381 158 9511ft 128kts
09-Aug-23 15:36 33.853185 -117.473172 151 10013ft 126kts
09-Aug-23 15:36 33.829272 -117.452959 153 10420ft 125kts
09-Aug-23 15:37 33.800126 -117.432364 154 10617ft 120kts
09-Aug-23 15:38 33.772856 -117.411430 154 10952ft 124kts
09-Aug-23 15:40 33.736809 -117.379062 148 10865ft 146kts
09-Aug-23 15:41 33.730830 -117.330694 96 11007ft 154kts
09-Aug-23 15:41 33.727048 -117.287290 106 10997ft 158kts
09-Aug-23 15:42 33.718342 -117.235361 104 10988ft 158kts
09-Aug-23 15:43 33.714565 -117.182286 98 10983ft 160kts
09-Aug-23 15:44 33.711991 -117.128966 100 10991ft 160kts
09-Aug-23 15:45 33.707090 -117.075775 102 10992ft 160kts
09-Aug-23 15:46 33.702051 -117.022761 101 10990ft 159kts
09-Aug-23 15:47 33.698068 -116.969607 96 10990ft 159kts
09-Aug-23 15:48 33.696524 -116.915759 100 10988ft 159kts
09-Aug-23 15:49 33.687527 -116.864606 104 10976ft 157kts
09-Aug-23 15:50 33.684343 -116.811250 99 10969ft 162kts
09-Aug-23 15:51 33.682264 -116.757236 107 10949ft 161kts
09-Aug-23 15:52 33.674925 -116.704188 113 10870ft 161kts
09-Aug-23 15:53 33.669458 -116.652442 93 11029ft 154kts
09-Aug-23 15:54 33.667982 -116.599091 93 11017ft 161kts
09-Aug-23 15:55 33.665006 -116.545562 102 11010ft 158kts
09-Aug-23 15:56 33.653582 -116.494850 109 11012ft 157kts
09-Aug-23 15:57 33.651517 -116.442660 92 11000ft 155kts
09-Aug-23 15:58 33.650526 -116.390965 101 10970ft 154kts
09-Aug-23 15:59 33.644100 -116.338790 104 10965ft 157kts
09-Aug-23 16:00 33.638427 -116.286747 100 10953ft 157kts
09-Aug-23 16:01 33.653420 -116.240948 39 10957ft 165kts
09-Aug-23 16:02 33.691104 -116.207989 35 10954ft 168kts
09-Aug-23 16:03 33.727267 -116.172210 42 10952ft 168kts
09-Aug-23 16:04 33.761560 -116.134051 39 10955ft 169kts
09-Aug-23 16:05 33.798043 -116.098155 42 10957ft 170kts
09-Aug-23 16:06 33.833323 -116.060045 40 10958ft 170kts
09-Aug-23 16:07 33.869687 -116.023813 41 10960ft 170kts
09-Aug-23 16:08 33.904540 -115.985707 44 10964ft 169kts
09-Aug-23 16:09 33.940025 -115.948383 37 10960ft 169kts
09-Aug-23 16:10 33.976168 -115.911711 41 10962ft 168kts
09-Aug-23 16:11 34.012605 -115.876413 34 10956ft 168kts
09-Aug-23 16:12 34.047554 -115.838816 41 10947ft 169kts
09-Aug-23 16:13 34.082580 -115.801400 38 10941ft 167kts
09-Aug-23 16:14 34.100009 -115.753596 81 10938ft 161kts
09-Aug-23 16:15 34.112851 -115.702135 91 10924ft 160kts
09-Aug-23 16:16 34.113223 -115.648717 100 10918ft 158kts
09-Aug-23 16:17 34.110011 -115.595793 98 10917ft 159kts
09-Aug-23 16:18 34.110147 -115.542409 89 10913ft 159kts
09-Aug-23 16:19 34.111187 -115.488226 94 10910ft 161kts
09-Aug-23 16:20 34.110245 -115.434373 95 10905ft 161kts
09-Aug-23 16:21 34.109498 -115.380235 94 10902ft 160kts
09-Aug-23 16:22 34.109219 -115.326396 94 10900ft 158kts
09-Aug-23 16:23 34.108756 -115.271111 94 10180ft 164kts
09-Aug-23 16:24 34.108392 -115.214678 93 9352ft 168kts
09-Aug-23 16:25 34.107095 -115.158029 92 8321ft 169kts
09-Aug-23 16:26 34.107924 -115.101545 95 7427ft 167kts
09-Aug-23 16:27 34.105877 -115.046636 97 6624ft 165kts
09-Aug-23 16:28 34.105691 -114.993976 87 6541ft 104kts
09-Aug-23 16:29 34.107279 -114.955229 99 7035ft 136kts
09-Aug-23 16:30 34.103643 -114.904489 99 7003ft 155kts
09-Aug-23 16:31 34.103955 -114.852432 88 7040ft 157kts
09-Aug-23 16:32 34.103763 -114.798406 93 6951ft 160kts
09-Aug-23 16:33 34.101552 -114.741460 93 6033ft 149kts
09-Aug-23 16:34 34.100361 -114.690297 88 5384ft 150kts
09-Aug-23 16:35 34.109804 -114.639732 77 5243ft 157kts
09-Aug-23 16:36 34.116915 -114.585662 81 4710ft 164kts
09-Aug-23 16:37 34.124017 -114.531989 86 4469ft 157kts
09-Aug-23 16:38 34.123678 -114.478886 85 4053ft 159kts
09-Aug-23 16:39 34.129975 -114.426343 89 3012ft 156kts
09-Aug-23 16:40 34.136468 -114.378772 80 2655ft 125kts
09-Aug-23 16:41 34.144915 -114.338697 80 1830ft 119kts
09-Aug-23 16:42 34.137407 -114.302742 114 1481ft 117kts
09-Aug-23 16:43 34.138459 -114.274505 25 572ft 89kts
09-Aug-23 16:44 34.150591 -114.267501 27 428ft 5kts
09-Aug-23 16:45 34.151321 -114.268084 290 429ft 0kts
09-Aug-23 16:46 34.151321 -114.268084 290 429ft 0kts
09-Aug-23 16:47 34.152114 -114.270054 295 429ft 22kts
09-Aug-23 16:48 34.153021 -114.272391 207 428ft 0kts
09-Aug-23 16:49 34.153021 -114.272391 207 428ft 0kts
09-Aug-23 16:50 34.153021 -114.272391 207 428ft 0kts
09-Aug-23 16:51 34.153021 -114.272391 207 428ft 0kts
09-Aug-23 16:52 34.153021 -114.272391 207 428ft 0kts
09-Aug-23 16:53 34.153021 -114.272391 207 428ft 0kts
09-Aug-23 16:54 34.153021 -114.272391 207 428ft 0kts
09-Aug-23 16:55 34.153021 -114.272391 207 430ft 0kts
09-Aug-23 16:56 34.153021 -114.272391 207 430ft 0kts
09-Aug-23 16:57 34.153021 -114.272391 207 425ft 0kts
09-Aug-23 16:58 34.153021 -114.272391 207 425ft 0kts

Navigation Log

Ident Type
Flight plan parsing failed, navigation log unavailable